sensor_id;sensor_type;location;lat;lon;timestamp;pressure;altitude;pressure_sealevel;temperature;humidity
15670;BME280;18524;45.190;5.732;2022-08-11T00:03:55;99140.19;;;28.01;35.77
15670;BME280;18524;45.190;5.732;2022-08-11T00:08:49;99139.25;;;28.59;36.27
15670;BME280;18524;45.190;5.732;2022-08-11T00:13:47;99143.06;;;28.23;35.02
15670;BME280;18524;45.190;5.732;2022-08-11T00:18:58;99149.34;;;27.65;34.62
15670;BME280;18524;45.190;5.732;2022-08-11T00:23:56;99148.16;;;27.61;35.00
15670;BME280;18524;45.190;5.732;2022-08-11T00:28:47;99150.97;;;27.54;35.78
15670;BME280;18524;45.190;5.732;2022-08-11T00:33:38;99151.91;;;27.60;35.66
15670;BME280;18524;45.190;5.732;2022-08-11T00:38:32;99146.72;;;27.35;35.68
15670;BME280;18524;45.190;5.732;2022-08-11T00:43:43;99159.84;;;27.43;37.66
15670;BME280;18524;45.190;5.732;2022-08-11T01:10:48;99173.97;;;27.27;36.22
15670;BME280;18524;45.190;5.732;2022-08-11T01:21:13;99182.28;;;27.14;37.58
15670;BME280;18524;45.190;5.732;2022-08-11T01:37:17;99181.22;;;26.96;36.59
15670;BME280;18524;45.190;5.732;2022-08-11T01:47:48;99191.06;;;26.72;37.69
15670;BME280;18524;45.190;5.732;2022-08-11T01:58:34;99186.28;;;26.20;37.58
15670;BME280;18524;45.190;5.732;2022-08-11T02:03:42;99184.13;;;26.10;37.85
15670;BME280;18524;45.190;5.732;2022-08-11T02:08:47;99187.50;;;25.80;38.85
15670;BME280;18524;45.190;5.732;2022-08-11T02:13:47;99182.81;;;25.94;39.69
15670;BME280;18524;45.190;5.732;2022-08-11T02:18:47;99182.91;;;25.88;39.52
15670;BME280;18524;45.190;5.732;2022-08-11T02:24:07;99183.91;;;25.62;40.14
15670;BME280;18524;45.190;5.732;2022-08-11T02:34:37;99180.78;;;25.71;40.28
15670;BME280;18524;45.190;5.732;2022-08-11T02:39:41;99192.19;;;25.60;39.89
15670;BME280;18524;45.190;5.732;2022-08-11T02:45:01;99181.22;;;25.62;39.69
15670;BME280;18524;45.190;5.732;2022-08-11T02:50:19;99182.72;;;25.58;40.28
15670;BME280;18524;45.190;5.732;2022-08-11T02:55:21;99182.06;;;25.62;39.56
15670;BME280;18524;45.190;5.732;2022-08-11T03:00:16;99181.59;;;25.72;40.40
15670;BME280;18524;45.190;5.732;2022-08-11T03:10:27;99178.25;;;26.38;40.80
15670;BME280;18524;45.190;5.732;2022-08-11T03:15:27;99185.63;;;26.06;39.53
15670;BME280;18524;45.190;5.732;2022-08-11T03:26:27;99190.75;;;25.89;39.85
15670;BME280;18524;45.190;5.732;2022-08-11T03:31:24;99185.16;;;25.66;40.21
15670;BME280;18524;45.190;5.732;2022-08-11T03:41:34;99187.09;;;25.52;40.77
15670;BME280;18524;45.190;5.732;2022-08-11T03:52:22;99194.75;;;25.23;40.87
15670;BME280;18524;45.190;5.732;2022-08-11T04:56:26;99239.47;;;24.27;45.54
15670;BME280;18524;45.190;5.732;2022-08-11T05:06:46;99250.22;;;24.27;45.67
15670;BME280;18524;45.190;5.732;2022-08-11T05:16:52;99256.78;;;24.44;45.55
15670;BME280;18524;45.190;5.732;2022-08-11T05:22:06;99265.38;;;24.73;44.69
15670;BME280;18524;45.190;5.732;2022-08-11T05:27:18;99277.91;;;24.85;44.91
15670;BME280;18524;45.190;5.732;2022-08-11T05:32:35;99278.31;;;24.89;44.40
15670;BME280;18524;45.190;5.732;2022-08-11T05:37:45;99274.03;;;24.75;44.29
15670;BME280;18524;45.190;5.732;2022-08-11T05:43:00;99275.94;;;24.61;44.71
15670;BME280;18524;45.190;5.732;2022-08-11T05:48:10;99280.59;;;24.85;45.01
15670;BME280;18524;45.190;5.732;2022-08-11T05:53:20;99276.88;;;24.93;44.11
15670;BME280;18524;45.190;5.732;2022-08-11T05:58:35;99276.22;;;24.98;43.76
15670;BME280;18524;45.190;5.732;2022-08-11T06:03:29;99272.13;;;24.88;44.01
15670;BME280;18524;45.190;5.732;2022-08-11T06:08:28;99274.00;;;25.33;43.84
15670;BME280;18524;45.190;5.732;2022-08-11T06:13:20;99274.66;;;25.60;42.54
15670;BME280;18524;45.190;5.732;2022-08-11T06:18:13;99273.81;;;25.91;42.15
15670;BME280;18524;45.190;5.732;2022-08-11T06:23:06;99276.06;;;25.94;41.51
15670;BME280;18524;45.190;5.732;2022-08-11T06:27:59;99271.66;;;25.43;43.00
15670;BME280;18524;45.190;5.732;2022-08-11T06:32:52;99272.94;;;25.02;43.84
15670;BME280;18524;45.190;5.732;2022-08-11T06:38:05;99272.34;;;26.20;41.68
15670;BME280;18524;45.190;5.732;2022-08-11T06:43:29;99258.56;;;26.71;39.72
15670;BME280;18524;45.190;5.732;2022-08-11T06:48:24;99263.78;;;27.21;38.60
15670;BME280;18524;45.190;5.732;2022-08-11T06:53:18;99256.00;;;27.84;37.64
15670;BME280;18524;45.190;5.732;2022-08-11T06:58:15;99251.59;;;28.37;36.19
15670;BME280;18524;45.190;5.732;2022-08-11T07:03:27;99255.13;;;28.37;35.60
15670;BME280;18524;45.190;5.732;2022-08-11T07:08:41;99257.03;;;28.77;34.36
15670;BME280;18524;45.190;5.732;2022-08-11T07:13:58;99259.84;;;29.22;33.59
15670;BME280;18524;45.190;5.732;2022-08-11T07:19:08;99254.66;;;28.92;33.47
15670;BME280;18524;45.190;5.732;2022-08-11T07:24:24;99254.25;;;29.12;34.08
15670;BME280;18524;45.190;5.732;2022-08-11T07:29:34;99250.75;;;29.28;33.43
15670;BME280;18524;45.190;5.732;2022-08-11T07:34:34;99245.63;;;29.43;32.73
15670;BME280;18524;45.190;5.732;2022-08-11T07:39:32;99238.28;;;29.39;33.27
15670;BME280;18524;45.190;5.732;2022-08-11T07:44:24;99228.16;;;29.46;32.78
15670;BME280;18524;45.190;5.732;2022-08-11T07:49:18;99228.22;;;29.68;32.61
15670;BME280;18524;45.190;5.732;2022-08-11T07:54:27;99215.03;;;30.05;31.50
15670;BME280;18524;45.190;5.732;2022-08-11T07:59:19;99210.28;;;30.51;31.25
15670;BME280;18524;45.190;5.732;2022-08-11T08:04:29;99207.16;;;31.07;31.31
15670;BME280;18524;45.190;5.732;2022-08-11T08:09:39;99207.22;;;31.39;30.39
15670;BME280;18524;45.190;5.732;2022-08-11T08:14:50;99199.94;;;32.14;29.07
15670;BME280;18524;45.190;5.732;2022-08-11T08:20:01;99196.59;;;32.44;27.88
15670;BME280;18524;45.190;5.732;2022-08-11T08:24:53;99180.97;;;32.24;28.75
15670;BME280;18524;45.190;5.732;2022-08-11T08:29:46;99177.84;;;32.48;29.50
15670;BME280;18524;45.190;5.732;2022-08-11T08:34:57;99183.66;;;32.72;29.10
15670;BME280;18524;45.190;5.732;2022-08-11T08:39:48;99180.75;;;32.93;28.05
15670;BME280;18524;45.190;5.732;2022-08-11T08:44:45;99179.69;;;33.10;27.13
15670;BME280;18524;45.190;5.732;2022-08-11T08:49:44;99160.63;;;32.94;27.00
15670;BME280;18524;45.190;5.732;2022-08-11T08:54:41;99150.63;;;33.15;27.05
15670;BME280;18524;45.190;5.732;2022-08-11T08:59:44;99149.25;;;33.64;26.24
15670;BME280;18524;45.190;5.732;2022-08-11T09:04:36;99150.88;;;33.19;26.53
15670;BME280;18524;45.190;5.732;2022-08-11T09:09:27;99149.78;;;33.25;26.29
15670;BME280;18524;45.190;5.732;2022-08-11T09:14:37;99131.22;;;34.08;26.70
15670;BME280;18524;45.190;5.732;2022-08-11T09:19:47;99123.38;;;33.92;25.76
15670;BME280;18524;45.190;5.732;2022-08-11T09:24:39;99126.75;;;34.43;25.45
15670;BME280;18524;45.190;5.732;2022-08-11T09:29:48;99121.28;;;34.97;25.40
15670;BME280;18524;45.190;5.732;2022-08-11T09:34:40;99113.34;;;35.30;25.27
15670;BME280;18524;45.190;5.732;2022-08-11T09:39:31;99098.56;;;35.41;25.34
15670;BME280;18524;45.190;5.732;2022-08-11T09:44:44;99091.03;;;35.86;24.65
15670;BME280;18524;45.190;5.732;2022-08-11T09:49:37;99087.38;;;35.95;24.35
15670;BME280;18524;45.190;5.732;2022-08-11T09:54:29;99079.69;;;35.74;24.47
15670;BME280;18524;45.190;5.732;2022-08-11T09:59:21;99072.97;;;35.90;24.09
15670;BME280;18524;45.190;5.732;2022-08-11T10:09:05;99063.09;;;36.93;23.44
15670;BME280;18524;45.190;5.732;2022-08-11T10:13:56;99055.13;;;37.43;23.56
15670;BME280;18524;45.190;5.732;2022-08-11T10:19:05;99047.34;;;37.91;22.04
15670;BME280;18524;45.190;5.732;2022-08-11T10:23:58;99034.88;;;38.12;21.42
15670;BME280;18524;45.190;5.732;2022-08-11T10:29:09;99028.19;;;38.19;21.31
15670;BME280;18524;45.190;5.732;2022-08-11T10:34:19;99023.34;;;37.61;21.37
15670;BME280;18524;45.190;5.732;2022-08-11T10:39:12;99018.53;;;38.21;21.47
15670;BME280;18524;45.190;5.732;2022-08-11T10:44:08;99005.47;;;38.76;20.69
15670;BME280;18524;45.190;5.732;2022-08-11T10:49:00;98998.22;;;39.03;20.36
15670;BME280;18524;45.190;5.732;2022-08-11T10:53:51;98994.00;;;39.28;20.35
15670;BME280;18524;45.190;5.732;2022-08-11T10:59:01;98986.41;;;39.73;19.96
15670;BME280;18524;45.190;5.732;2022-08-11T11:03:57;98983.63;;;40.39;19.82
15670;BME280;18524;45.190;5.732;2022-08-11T11:08:48;98973.75;;;40.46;19.00
15670;BME280;18524;45.190;5.732;2022-08-11T11:13:45;98961.91;;;40.72;19.07
15670;BME280;18524;45.190;5.732;2022-08-11T11:18:56;98957.13;;;41.15;18.51
15670;BME280;18524;45.190;5.732;2022-08-11T11:29:10;98950.34;;;41.80;18.03
15670;BME280;18524;45.190;5.732;2022-08-11T11:39:07;98939.84;;;42.36;17.66
15670;BME280;18524;45.190;5.732;2022-08-11T11:43:58;98917.34;;;42.67;16.93
15670;BME280;18524;45.190;5.732;2022-08-11T11:48:49;98922.13;;;42.91;16.57
15670;BME280;18524;45.190;5.732;2022-08-11T11:53:43;98915.13;;;43.18;16.39
15670;BME280;18524;45.190;5.732;2022-08-11T11:58:34;98906.06;;;43.30;16.20
15670;BME280;18524;45.190;5.732;2022-08-11T12:03:48;98893.03;;;43.43;15.91
15670;BME280;18524;45.190;5.732;2022-08-11T12:08:40;98901.53;;;43.62;15.52
15670;BME280;18524;45.190;5.732;2022-08-11T12:13:32;98891.53;;;43.70;15.35
15670;BME280;18524;45.190;5.732;2022-08-11T12:18:34;98882.50;;;43.85;14.53
15670;BME280;18524;45.190;5.732;2022-08-11T12:23:25;98880.97;;;44.00;15.02
15670;BME280;18524;45.190;5.732;2022-08-11T12:28:35;98873.16;;;44.17;15.10
15670;BME280;18524;45.190;5.732;2022-08-11T12:33:26;98869.22;;;44.31;14.81
15670;BME280;18524;45.190;5.732;2022-08-11T12:38:18;98861.91;;;44.38;14.73
15670;BME280;18524;45.190;5.732;2022-08-11T12:43:16;98858.97;;;44.47;15.03
15670;BME280;18524;45.190;5.732;2022-08-11T12:48:30;98844.16;;;44.55;14.21
15670;BME280;18524;45.190;5.732;2022-08-11T12:53:45;98833.91;;;44.55;14.21
15670;BME280;18524;45.190;5.732;2022-08-11T12:58:40;98835.69;;;44.48;14.43
15670;BME280;18524;45.190;5.732;2022-08-11T13:03:33;98823.88;;;44.35;14.25
15670;BME280;18524;45.190;5.732;2022-08-11T13:08:44;98827.13;;;44.09;14.74
15670;BME280;18524;45.190;5.732;2022-08-11T13:13:36;98822.81;;;43.96;14.26
15670;BME280;18524;45.190;5.732;2022-08-11T13:18:28;98806.03;;;43.89;15.20
15670;BME280;18524;45.190;5.732;2022-08-11T13:23:19;98806.31;;;43.72;14.34
15670;BME280;18524;45.190;5.732;2022-08-11T13:28:10;98794.66;;;43.38;14.37
15670;BME280;18524;45.190;5.732;2022-08-11T13:33:03;98792.16;;;43.21;14.39
15670;BME280;18524;45.190;5.732;2022-08-11T13:37:54;98775.03;;;42.79;14.98
15670;BME280;18524;45.190;5.732;2022-08-11T13:42:45;98770.06;;;42.02;14.32
15670;BME280;18524;45.190;5.732;2022-08-11T13:47:38;98757.59;;;41.84;15.33
15670;BME280;18524;45.190;5.732;2022-08-11T13:52:29;98753.19;;;41.50;14.41
15670;BME280;18524;45.190;5.732;2022-08-11T13:57:20;98755.63;;;41.01;14.47
15670;BME280;18524;45.190;5.732;2022-08-11T14:02:15;98747.75;;;40.61;16.06
15670;BME280;18524;45.190;5.732;2022-08-11T14:07:08;98728.63;;;40.27;14.62
15670;BME280;18524;45.190;5.732;2022-08-11T14:12:01;98752.81;;;39.87;14.89
15670;BME280;18524;45.190;5.732;2022-08-11T14:17:12;98735.06;;;39.67;16.74
15670;BME280;18524;45.190;5.732;2022-08-11T14:22:05;98732.16;;;39.55;16.32
15670;BME280;18524;45.190;5.732;2022-08-11T14:26:56;98733.91;;;39.33;14.86
15670;BME280;18524;45.190;5.732;2022-08-11T14:31:55;98731.28;;;39.02;14.59
15670;BME280;18524;45.190;5.732;2022-08-11T14:36:52;98732.06;;;38.86;14.17
15670;BME280;18524;45.190;5.732;2022-08-11T14:41:46;98732.06;;;38.77;15.60
15670;BME280;18524;45.190;5.732;2022-08-11T14:46:56;98724.53;;;38.60;15.46
15670;BME280;18524;45.190;5.732;2022-08-11T14:51:56;98716.09;;;38.39;13.59
15670;BME280;18524;45.190;5.732;2022-08-11T14:56:47;98699.63;;;38.31;15.69
15670;BME280;18524;45.190;5.732;2022-08-11T15:01:38;98706.00;;;38.17;14.30
15670;BME280;18524;45.190;5.732;2022-08-11T15:06:49;98707.88;;;38.08;13.89
15670;BME280;18524;45.190;5.732;2022-08-11T15:11:40;98702.59;;;37.90;14.56
15670;BME280;18524;45.190;5.732;2022-08-11T15:16:49;98700.59;;;37.73;13.83
15670;BME280;18524;45.190;5.732;2022-08-11T15:21:58;98690.25;;;37.70;15.16
15670;BME280;18524;45.190;5.732;2022-08-11T15:27:11;98686.50;;;37.66;14.10
15670;BME280;18524;45.190;5.732;2022-08-11T15:32:22;98684.28;;;37.45;14.67
15670;BME280;18524;45.190;5.732;2022-08-11T15:37:33;98679.09;;;37.44;16.35
15670;BME280;18524;45.190;5.732;2022-08-11T15:42:25;98665.72;;;37.20;15.88
15670;BME280;18524;45.190;5.732;2022-08-11T15:47:40;98680.53;;;37.19;16.09
15670;BME280;18524;45.190;5.732;2022-08-11T15:52:34;98668.84;;;37.13;16.46
15670;BME280;18524;45.190;5.732;2022-08-11T15:57:30;98669.78;;;37.09;16.37
15670;BME280;18524;45.190;5.732;2022-08-11T16:02:58;98664.94;;;37.06;18.32
15670;BME280;18524;45.190;5.732;2022-08-11T16:08:08;98654.50;;;36.85;16.88
15670;BME280;18524;45.190;5.732;2022-08-11T16:13:01;98654.59;;;36.80;16.91
15670;BME280;18524;45.190;5.732;2022-08-11T16:17:57;98657.84;;;36.82;17.14
15670;BME280;18524;45.190;5.732;2022-08-11T16:22:50;98668.94;;;36.72;17.14
15670;BME280;18524;45.190;5.732;2022-08-11T16:27:44;98655.28;;;36.72;17.57
15670;BME280;18524;45.190;5.732;2022-08-11T16:32:39;98654.63;;;36.53;17.65
15670;BME280;18524;45.190;5.732;2022-08-11T16:37:33;98654.22;;;36.46;17.08
15670;BME280;18524;45.190;5.732;2022-08-11T16:42:45;98644.59;;;36.35;17.22
15670;BME280;18524;45.190;5.732;2022-08-11T16:47:55;98642.47;;;36.31;16.59
15670;BME280;18524;45.190;5.732;2022-08-11T16:52:45;98637.59;;;36.28;18.72
15670;BME280;18524;45.190;5.732;2022-08-11T16:57:37;98636.91;;;36.23;17.29
15670;BME280;18524;45.190;5.732;2022-08-11T17:02:51;98641.88;;;36.07;18.26
15670;BME280;18524;45.190;5.732;2022-08-11T17:08:01;98640.22;;;35.92;17.86
15670;BME280;18524;45.190;5.732;2022-08-11T17:13:14;98642.09;;;35.78;18.31
15670;BME280;18524;45.190;5.732;2022-08-11T17:18:06;98630.47;;;35.72;17.99
15670;BME280;18524;45.190;5.732;2022-08-11T17:23:00;98634.81;;;35.74;17.86
15670;BME280;18524;45.190;5.732;2022-08-11T17:28:11;98632.75;;;35.65;19.19
15670;BME280;18524;45.190;5.732;2022-08-11T17:33:03;98633.63;;;35.47;18.36
15670;BME280;18524;45.190;5.732;2022-08-11T17:38:20;98633.44;;;35.44;18.62
15670;BME280;18524;45.190;5.732;2022-08-11T17:43:13;98632.22;;;35.31;18.81
15670;BME280;18524;45.190;5.732;2022-08-11T17:48:23;98633.94;;;35.27;18.42
15670;BME280;18524;45.190;5.732;2022-08-11T17:53:17;98633.88;;;35.13;19.79
15670;BME280;18524;45.190;5.732;2022-08-11T17:58:28;98651.13;;;35.08;20.09
15670;BME280;18524;45.190;5.732;2022-08-11T18:03:39;98647.81;;;34.93;20.02
15670;BME280;18524;45.190;5.732;2022-08-11T18:08:32;98653.63;;;34.86;20.82
15670;BME280;18524;45.190;5.732;2022-08-11T18:13:43;98664.44;;;34.72;20.18
15670;BME280;18524;45.190;5.732;2022-08-11T18:18:52;98659.41;;;34.61;19.91
15670;BME280;18524;45.190;5.732;2022-08-11T18:24:06;98666.06;;;34.49;19.41
15670;BME280;18524;45.190;5.732;2022-08-11T18:29:18;98665.03;;;34.45;21.66
15670;BME280;18524;45.190;5.732;2022-08-11T18:34:31;98671.75;;;34.29;19.73
15670;BME280;18524;45.190;5.732;2022-08-11T18:39:43;98680.00;;;34.19;20.48
15670;BME280;18524;45.190;5.732;2022-08-11T18:44:54;98688.06;;;34.05;20.48
15670;BME280;18524;45.190;5.732;2022-08-11T18:50:04;98686.84;;;33.93;20.68
15670;BME280;18524;45.190;5.732;2022-08-11T18:55:16;98684.22;;;33.82;20.72
15670;BME280;18524;45.190;5.732;2022-08-11T19:00:27;98681.53;;;33.72;21.68
15670;BME280;18524;45.190;5.732;2022-08-11T19:05:37;98692.81;;;33.61;21.16
15670;BME280;18524;45.190;5.732;2022-08-11T19:10:47;98697.50;;;33.55;22.11
15670;BME280;18524;45.190;5.732;2022-08-11T19:15:56;98707.94;;;33.38;20.29
15670;BME280;18524;45.190;5.732;2022-08-11T19:21:07;98717.19;;;33.37;23.79
15670;BME280;18524;45.190;5.732;2022-08-11T19:26:16;98729.84;;;33.12;21.92
15670;BME280;18524;45.190;5.732;2022-08-11T19:31:26;98729.09;;;32.97;21.65
15670;BME280;18524;45.190;5.732;2022-08-11T19:36:36;98737.56;;;32.90;22.87
15670;BME280;18524;45.190;5.732;2022-08-11T19:41:46;98735.16;;;32.78;21.98
15670;BME280;18524;45.190;5.732;2022-08-11T19:46:56;98742.47;;;32.83;24.11
15670;BME280;18524;45.190;5.732;2022-08-11T19:52:07;98748.22;;;32.61;22.41
15670;BME280;18524;45.190;5.732;2022-08-11T19:57:16;98743.13;;;32.49;22.66
15670;BME280;18524;45.190;5.732;2022-08-11T20:02:27;98750.47;;;32.44;23.64
15670;BME280;18524;45.190;5.732;2022-08-11T20:07:36;98744.78;;;32.40;23.50
15670;BME280;18524;45.190;5.732;2022-08-11T20:12:46;98756.72;;;32.39;24.79
15670;BME280;18524;45.190;5.732;2022-08-11T20:17:56;98752.91;;;32.20;22.83
15670;BME280;18524;45.190;5.732;2022-08-11T20:23:07;98764.31;;;32.22;25.15
15670;BME280;18524;45.190;5.732;2022-08-11T20:28:18;98762.41;;;32.32;25.59
15670;BME280;18524;45.190;5.732;2022-08-11T20:33:28;98776.00;;;32.17;24.37
15670;BME280;18524;45.190;5.732;2022-08-11T20:38:39;98765.41;;;32.21;25.10
15670;BME280;18524;45.190;5.732;2022-08-11T20:43:49;98776.28;;;32.26;25.87
15670;BME280;18524;45.190;5.732;2022-08-11T20:49:00;98778.44;;;32.19;26.19
15670;BME280;18524;45.190;5.732;2022-08-11T20:54:10;98786.03;;;32.22;26.92
15670;BME280;18524;45.190;5.732;2022-08-11T20:59:22;98788.47;;;32.18;26.94
15670;BME280;18524;45.190;5.732;2022-08-11T21:04:31;98781.97;;;32.04;26.30
15670;BME280;18524;45.190;5.732;2022-08-11T21:09:41;98792.31;;;31.97;27.49
15670;BME280;18524;45.190;5.732;2022-08-11T21:14:52;98789.28;;;31.83;27.44
15670;BME280;18524;45.190;5.732;2022-08-11T21:20:04;98798.50;;;31.72;28.04
15670;BME280;18524;45.190;5.732;2022-08-11T21:25:17;98794.41;;;31.69;28.61
15670;BME280;18524;45.190;5.732;2022-08-11T21:30:27;98796.88;;;31.76;28.00
15670;BME280;18524;45.190;5.732;2022-08-11T21:35:38;98802.84;;;31.73;28.49
15670;BME280;18524;45.190;5.732;2022-08-11T21:40:49;98814.75;;;31.62;28.64
15670;BME280;18524;45.190;5.732;2022-08-11T21:46:00;98809.56;;;31.50;29.29
15670;BME280;18524;45.190;5.732;2022-08-11T21:51:10;98811.44;;;31.50;28.91
15670;BME280;18524;45.190;5.732;2022-08-11T21:56:20;98812.78;;;31.37;29.65
15670;BME280;18524;45.190;5.732;2022-08-11T22:01:31;98822.00;;;31.36;30.22
15670;BME280;18524;45.190;5.732;2022-08-11T22:06:42;98830.13;;;31.36;29.25
15670;BME280;18524;45.190;5.732;2022-08-11T22:11:52;98829.50;;;31.19;29.73
15670;BME280;18524;45.190;5.732;2022-08-11T22:17:02;98830.25;;;31.04;29.03
15670;BME280;18524;45.190;5.732;2022-08-11T22:22:11;98840.50;;;30.92;29.75
15670;BME280;18524;45.190;5.732;2022-08-11T22:27:21;98848.22;;;30.73;28.97
15670;BME280;18524;45.190;5.732;2022-08-11T22:32:30;98847.94;;;30.69;30.61
15670;BME280;18524;45.190;5.732;2022-08-11T22:37:41;98847.91;;;30.64;29.58
15670;BME280;18524;45.190;5.732;2022-08-11T22:42:52;98851.69;;;30.63;31.17
15670;BME280;18524;45.190;5.732;2022-08-11T22:48:03;98853.09;;;30.39;30.22
15670;BME280;18524;45.190;5.732;2022-08-11T22:53:14;98859.78;;;30.26;30.29
15670;BME280;18524;45.190;5.732;2022-08-11T22:58:25;98860.97;;;30.40;32.05
15670;BME280;18524;45.190;5.732;2022-08-11T23:03:34;98868.16;;;30.25;31.65
15670;BME280;18524;45.190;5.732;2022-08-11T23:08:45;98868.69;;;30.22;32.85
15670;BME280;18524;45.190;5.732;2022-08-11T23:13:54;98877.28;;;30.13;30.64
15670;BME280;18524;45.190;5.732;2022-08-11T23:19:04;98884.03;;;29.89;30.19
15670;BME280;18524;45.190;5.732;2022-08-11T23:24:13;98883.97;;;29.84;31.07
15670;BME280;18524;45.190;5.732;2022-08-11T23:29:22;98894.50;;;29.59;31.48
15670;BME280;18524;45.190;5.732;2022-08-11T23:34:35;98900.31;;;29.45;31.44
15670;BME280;18524;45.190;5.732;2022-08-11T23:39:46;98907.56;;;29.23;31.72
15670;BME280;18524;45.190;5.732;2022-08-11T23:44:55;98909.91;;;28.98;31.27
15670;BME280;18524;45.190;5.732;2022-08-11T23:50:05;98914.41;;;28.92;31.38
15670;BME280;18524;45.190;5.732;2022-08-11T23:55:14;98913.44;;;28.81;30.92
